Merrillan, WI (54754)

4:47 AM CDT on May 25, 2015 (GMT -0500)
WIDOT | | Change Station
CLOSE
Current Station
Personal Weather Station
Location: Black River Falls, WI
Elevation: 1090 ft
Nearby Weather Stations

Elev 1090 ft 44.34 °N, 90.91 °W | Updated 38 minutes ago

Overcast
Overcast
58 °F
Feels Like 58 °F
N
0
Wind Variable Wind from SSW
Gusts 0.0 mph

Today
High -- | Low -- °F
--% Chance of Precip.
Yesterday
High -- | Low -- °F
Precip. -- in
5:26 AM 8:34 PM
Waxing Crescent, 47% visible
Pressure 29.71 in
Visibility 1.5 miles
Clouds Overcast 400 ft
Dew Point 57 °F
Humidity 94%
Rainfall in
Snow Depth Not available.
UV 0 out of 12
Pollen 5.70 out of 12
Air Quality Not available.
Flu Activity Sporadic
METAR KBCK 250935Z AUTO 00000KT 1 1/2SM BR OVC004 16/16 A2971 RMK AO2 P0003 T01570157

More Conditions Fewer Conditions

Pressure 29.71 in
Visibility 1.5 miles
Clouds Overcast 400 ft
Dew Point 57 °F
Humidity 94%
Rainfall in
Snow Depth Not available.
UV 0 out of 12
Pollen 5.70 out of 12
Air Quality Not available.
Flu Activity Sporadic
METAR KBCK 250935Z AUTO 00000KT 1 1/2SM BR OVC004 16/16 A2971 RMK AO2 P0003 T01570157

More Conditions Fewer Conditions

10-Day Weather Forecast

Almanac

Astronomy

May. 25, 2015 Rise Set
Actual Time
Civil Twilight
Nautical Twilight
Astronomical Twilight
Moon
Length of Visible Light
Length of Day
Tomorrow will be .
, % of the Moon is Illuminated

Today's Extremes

State Highs State Lows

Community

WunderPhotos

Upload Photos

1,823,963 photos uploaded!

WunderBlogs® & News

Nearby

Air Quality

  Air Quality AQ Index Pollutant
Not available.

Snow Depth

Station Depth Elevation

Earthquake Activity

City Distance Mag. Time & Date
Minimum magnitude displayed is 2.5.

Coastal Water Temperatures

Place Temperature

Stations

Nearby Weather Stations

Station Location Temp. Windchill Dew Point Humidity Wind Precip. Elev Updated Type